sensor_id;sensor_type;location;lat;lon;timestamp;pressure;altitude;pressure_sealevel;temperature;humidity
69239;BME280;56349;51.816;-0.026;2023-04-01T00:01:00;99172.66;;;22.93;35.25
69239;BME280;56349;51.816;-0.026;2023-04-01T00:03:26;99177.32;;;22.35;35.39
69239;BME280;56349;51.816;-0.026;2023-04-01T00:05:51;99178.63;;;22.71;35.56
69239;BME280;56349;51.816;-0.026;2023-04-01T00:08:17;99182.83;;;22.60;35.73
69239;BME280;56349;51.816;-0.026;2023-04-01T00:10:42;99184.92;;;22.29;35.81
69239;BME280;56349;51.816;-0.026;2023-04-01T00:13:08;99190.12;;;21.92;35.96
69239;BME280;56349;51.816;-0.026;2023-04-01T00:15:34;99191.13;;;22.33;36.06
69239;BME280;56349;51.816;-0.026;2023-04-01T00:18:00;99194.71;;;21.75;36.16
69239;BME280;56349;51.816;-0.026;2023-04-01T00:20:26;99196.01;;;22.16;36.26
69239;BME280;56349;51.816;-0.026;2023-04-01T00:22:51;99205.75;;;22.08;36.35
69239;BME280;56349;51.816;-0.026;2023-04-01T00:25:17;99207.43;;;22.02;36.48
69239;BME280;56349;51.816;-0.026;2023-04-01T00:27:42;99212.19;;;22.18;36.52
69239;BME280;56349;51.816;-0.026;2023-04-01T00:30:09;99215.80;;;21.87;36.67
69239;BME280;56349;51.816;-0.026;2023-04-01T00:32:33;99216.22;;;21.82;36.75
69239;BME280;56349;51.816;-0.026;2023-04-01T00:34:59;99219.40;;;21.74;36.86
69239;BME280;56349;51.816;-0.026;2023-04-01T00:37:30;99223.03;;;21.90;36.94
69239;BME280;56349;51.816;-0.026;2023-04-01T00:39:50;99223.75;;;21.63;37.01
69239;BME280;56349;51.816;-0.026;2023-04-01T00:42:16;99226.75;;;21.57;37.11
69239;BME280;56349;51.816;-0.026;2023-04-01T00:44:42;99229.66;;;21.74;37.16
69239;BME280;56349;51.816;-0.026;2023-04-01T00:47:06;99228.28;;;21.70;37.21
69239;BME280;56349;51.816;-0.026;2023-04-01T00:49:36;99234.06;;;21.43;37.28
69239;BME280;56349;51.816;-0.026;2023-04-01T00:51:59;99235.29;;;21.39;37.35
69239;BME280;56349;51.816;-0.026;2023-04-01T00:54:25;99240.51;;;21.33;37.37
69239;BME280;56349;51.816;-0.026;2023-04-01T00:56:52;99242.33;;;21.49;37.47
69239;BME280;56349;51.816;-0.026;2023-04-01T00:59:21;99246.60;;;21.21;37.57
69239;BME280;56349;51.816;-0.026;2023-04-01T01:01:40;99250.81;;;21.38;37.64
69239;BME280;56349;51.816;-0.026;2023-04-01T01:04:06;99254.19;;;21.35;37.70
69239;BME280;56349;51.816;-0.026;2023-04-01T01:06:39;99258.32;;;21.32;37.73
69239;BME280;56349;51.816;-0.026;2023-04-01T01:09:10;99257.37;;;21.27;37.77
69239;BME280;56349;51.816;-0.026;2023-04-01T01:11:32;99259.10;;;20.99;37.84
69239;BME280;56349;51.816;-0.026;2023-04-01T01:13:56;99260.66;;;21.44;37.88
69239;BME280;56349;51.816;-0.026;2023-04-01T01:16:20;99263.42;;;21.14;37.95
69239;BME280;56349;51.816;-0.026;2023-04-01T01:18:46;99266.31;;;21.09;38.00
69239;BME280;56349;51.816;-0.026;2023-04-01T01:21:16;99267.11;;;21.05;38.08
69239;BME280;56349;51.816;-0.026;2023-04-01T01:23:46;99268.19;;;21.29;38.08
69239;BME280;56349;51.816;-0.026;2023-04-01T01:26:09;99271.71;;;21.00;38.14
69239;BME280;56349;51.816;-0.026;2023-04-01T01:28:32;99273.24;;;20.75;38.17
69239;BME280;56349;51.816;-0.026;2023-04-01T01:30:52;99279.62;;;20.94;38.22
69239;BME280;56349;51.816;-0.026;2023-04-01T01:33:29;99282.56;;;21.16;38.28
69239;BME280;56349;51.816;-0.026;2023-04-01T01:35:46;99281.65;;;21.12;38.33
69239;BME280;56349;51.816;-0.026;2023-04-01T01:38:09;99288.85;;;21.10;38.35
69239;BME280;56349;51.816;-0.026;2023-04-01T01:40:33;99292.35;;;20.80;38.39
69239;BME280;56349;51.816;-0.026;2023-04-01T01:43:00;99296.38;;;20.76;38.43
69239;BME280;56349;51.816;-0.026;2023-04-01T01:45:26;99298.03;;;20.73;38.48
69239;BME280;56349;51.816;-0.026;2023-04-01T01:47:49;99301.75;;;20.70;38.52
69239;BME280;56349;51.816;-0.026;2023-04-01T01:50:14;99305.37;;;20.93;38.53
69239;BME280;56349;51.816;-0.026;2023-04-01T01:52:38;99307.84;;;20.90;38.58
69239;BME280;56349;51.816;-0.026;2023-04-01T01:57:34;99319.35;;;20.62;38.59
69239;BME280;56349;51.816;-0.026;2023-04-01T01:59:58;99321.49;;;20.62;38.59
69239;BME280;56349;51.816;-0.026;2023-04-01T02:02:22;99327.75;;;20.87;38.60
69239;BME280;56349;51.816;-0.026;2023-04-01T02:04:47;99330.32;;;20.82;38.67
69239;BME280;56349;51.816;-0.026;2023-04-01T02:07:16;99333.22;;;20.78;38.71
69239;BME280;56349;51.816;-0.026;2023-04-01T02:09:38;99343.45;;;20.73;38.76
69239;BME280;56349;51.816;-0.026;2023-04-01T02:12:06;99349.22;;;20.71;38.78
69239;BME280;56349;51.816;-0.026;2023-04-01T02:14:33;99354.69;;;20.69;38.79
69239;BME280;56349;51.816;-0.026;2023-04-01T02:16:57;99357.16;;;20.65;38.86
69239;BME280;56349;51.816;-0.026;2023-04-01T02:19:20;99363.36;;;20.64;38.88
69239;BME280;56349;51.816;-0.026;2023-04-01T02:21:45;99365.37;;;20.63;38.88
69239;BME280;56349;51.816;-0.026;2023-04-01T02:24:14;99365.24;;;20.60;38.91
69239;BME280;56349;51.816;-0.026;2023-04-01T02:26:38;99366.87;;;20.56;38.94
69239;BME280;56349;51.816;-0.026;2023-04-01T02:29:04;99371.54;;;20.54;38.97
69239;BME280;56349;51.816;-0.026;2023-04-01T02:31:28;99374.02;;;20.53;38.98
69239;BME280;56349;51.816;-0.026;2023-04-01T02:33:54;99377.92;;;20.53;38.97
69239;BME280;56349;51.816;-0.026;2023-04-01T02:36:20;99377.90;;;20.50;38.99
69239;BME280;56349;51.816;-0.026;2023-04-01T02:38:47;99380.66;;;20.45;39.04
69239;BME280;56349;51.816;-0.026;2023-04-01T02:41:12;99381.63;;;20.44;39.06
69239;BME280;56349;51.816;-0.026;2023-04-01T02:43:38;99381.45;;;20.41;39.08
69239;BME280;56349;51.816;-0.026;2023-04-01T02:46:03;99382.04;;;20.37;39.12
69239;BME280;56349;51.816;-0.026;2023-04-01T02:48:29;99383.25;;;20.34;39.15
69239;BME280;56349;51.816;-0.026;2023-04-01T02:50:55;99384.59;;;20.55;39.17
69239;BME280;56349;51.816;-0.026;2023-04-01T02:53:22;99385.82;;;20.53;39.19
69239;BME280;56349;51.816;-0.026;2023-04-01T02:55:46;99389.38;;;20.30;39.18
69239;BME280;56349;51.816;-0.026;2023-04-01T02:58:12;99391.38;;;20.29;39.19
69239;BME280;56349;51.816;-0.026;2023-04-01T03:00:38;99394.22;;;20.26;39.21
69239;BME280;56349;51.816;-0.026;2023-04-01T03:03:04;99397.26;;;20.24;39.23
69239;BME280;56349;51.816;-0.026;2023-04-01T03:05:30;99400.34;;;20.22;39.25
69239;BME280;56349;51.816;-0.026;2023-04-01T03:07:55;99411.26;;;20.21;39.26
69239;BME280;56349;51.816;-0.026;2023-04-01T03:10:21;99414.16;;;20.16;39.29
69239;BME280;56349;51.816;-0.026;2023-04-01T03:12:47;99415.99;;;20.14;39.30
69239;BME280;56349;51.816;-0.026;2023-04-01T03:15:13;99418.27;;;20.13;39.30
69239;BME280;56349;51.816;-0.026;2023-04-01T03:17:39;99420.91;;;20.11;39.32
69239;BME280;56349;51.816;-0.026;2023-04-01T03:20:05;99424.74;;;20.32;39.33
69239;BME280;56349;51.816;-0.026;2023-04-01T03:22:30;99426.05;;;20.10;39.32
69239;BME280;56349;51.816;-0.026;2023-04-01T03:24:56;99424.82;;;20.09;39.33
69239;BME280;56349;51.816;-0.026;2023-04-01T03:27:22;99431.04;;;20.08;39.32
69239;BME280;56349;51.816;-0.026;2023-04-01T03:29:48;99433.56;;;20.07;39.33
69239;BME280;56349;51.816;-0.026;2023-04-01T03:32:13;99432.70;;;20.29;39.42
69239;BME280;56349;51.816;-0.026;2023-04-01T03:34:39;99435.56;;;20.08;39.54
69239;BME280;56349;51.816;-0.026;2023-04-01T03:37:05;99431.33;;;20.12;39.65
69239;BME280;56349;51.816;-0.026;2023-04-01T03:39:31;99436.79;;;20.67;39.68
69239;BME280;56349;51.816;-0.026;2023-04-01T03:41:57;99436.15;;;20.35;39.60
69239;BME280;56349;51.816;-0.026;2023-04-01T03:44:22;99438.30;;;20.51;39.45
69239;BME280;56349;51.816;-0.026;2023-04-01T03:46:48;99435.73;;;20.44;39.22
69239;BME280;56349;51.816;-0.026;2023-04-01T03:49:14;99438.18;;;20.64;38.99
69239;BME280;56349;51.816;-0.026;2023-04-01T03:51:41;99443.35;;;20.83;38.71
69239;BME280;56349;51.816;-0.026;2023-04-01T03:54:05;99445.85;;;21.00;38.45
69239;BME280;56349;51.816;-0.026;2023-04-01T03:56:31;99446.41;;;21.16;38.17
69239;BME280;56349;51.816;-0.026;2023-04-01T03:58:57;99449.75;;;21.28;37.94
69239;BME280;56349;51.816;-0.026;2023-04-01T04:01:23;99453.39;;;21.14;37.74
69239;BME280;56349;51.816;-0.026;2023-04-01T04:03:49;99457.16;;;21.67;37.58
69239;BME280;56349;51.816;-0.026;2023-04-01T04:06:14;99460.42;;;21.42;37.47
69239;BME280;56349;51.816;-0.026;2023-04-01T04:08:39;99467.20;;;21.19;37.39
69239;BME280;56349;51.816;-0.026;2023-04-01T04:11:05;99471.43;;;21.16;37.32
69239;BME280;56349;51.816;-0.026;2023-04-01T04:13:31;99476.37;;;21.34;37.31
69239;BME280;56349;51.816;-0.026;2023-04-01T04:15:57;99477.65;;;21.30;37.28
69239;BME280;56349;51.816;-0.026;2023-04-01T04:18:22;99480.43;;;21.52;37.28
69239;BME280;56349;51.816;-0.026;2023-04-01T04:20:48;99489.74;;;21.47;37.26
69239;BME280;56349;51.816;-0.026;2023-04-01T04:23:14;99490.72;;;21.42;37.27
69239;BME280;56349;51.816;-0.026;2023-04-01T04:25:40;99496.75;;;21.08;37.31
69239;BME280;56349;51.816;-0.026;2023-04-01T04:28:05;99499.59;;;21.28;37.33
69239;BME280;56349;51.816;-0.026;2023-04-01T04:30:31;99502.90;;;20.93;37.38
69239;BME280;56349;51.816;-0.026;2023-04-01T04:32:57;99503.00;;;20.86;37.41
69239;BME280;56349;51.816;-0.026;2023-04-01T04:35:23;99505.64;;;21.07;37.44
69239;BME280;56349;51.816;-0.026;2023-04-01T04:37:49;99510.35;;;20.73;37.49
69239;BME280;56349;51.816;-0.026;2023-04-01T04:40:15;99511.62;;;20.64;37.56
69239;BME280;56349;51.816;-0.026;2023-04-01T04:42:40;99514.60;;;20.84;37.61
69239;BME280;56349;51.816;-0.026;2023-04-01T04:45:07;99514.37;;;20.79;37.64
69239;BME280;56349;51.816;-0.026;2023-04-01T04:47:31;99519.93;;;20.75;37.68
69239;BME280;56349;51.816;-0.026;2023-04-01T04:49:57;99519.41;;;20.70;37.71
69239;BME280;56349;51.816;-0.026;2023-04-01T04:52:23;99523.66;;;20.62;37.79
69239;BME280;56349;51.816;-0.026;2023-04-01T04:54:48;99524.86;;;20.56;37.92
69239;BME280;56349;51.816;-0.026;2023-04-01T04:57:14;99531.62;;;20.51;38.07
69239;BME280;56349;51.816;-0.026;2023-04-01T04:59:40;99536.53;;;20.49;38.27
69239;BME280;56349;51.816;-0.026;2023-04-01T05:02:06;99540.03;;;20.89;38.49
69239;BME280;56349;51.816;-0.026;2023-04-01T05:04:34;99540.87;;;20.43;38.70
69239;BME280;56349;51.816;-0.026;2023-04-01T05:06:58;99544.91;;;20.63;38.94
69239;BME280;56349;51.816;-0.026;2023-04-01T05:09:23;99546.60;;;20.41;39.11
69239;BME280;56349;51.816;-0.026;2023-04-01T05:11:49;99551.01;;;20.41;39.33
69239;BME280;56349;51.816;-0.026;2023-04-01T05:14:16;99550.48;;;20.42;39.53
69239;BME280;56349;51.816;-0.026;2023-04-01T05:16:40;99551.80;;;20.42;39.74
69239;BME280;56349;51.816;-0.026;2023-04-01T05:19:06;99556.88;;;20.46;39.86
69239;BME280;56349;51.816;-0.026;2023-04-01T05:21:32;99559.04;;;20.49;39.98
69239;BME280;56349;51.816;-0.026;2023-04-01T05:23:57;99563.98;;;20.50;40.11
69239;BME280;56349;51.816;-0.026;2023-04-01T05:26:23;99568.69;;;20.55;40.23
69239;BME280;56349;51.816;-0.026;2023-04-01T05:28:49;99571.27;;;20.60;40.31
69239;BME280;56349;51.816;-0.026;2023-04-01T05:31:15;99576.05;;;20.64;40.39
69239;BME280;56349;51.816;-0.026;2023-04-01T05:33:41;99578.40;;;20.68;40.47
69239;BME280;56349;51.816;-0.026;2023-04-01T05:36:09;99580.40;;;20.73;40.54
69239;BME280;56349;51.816;-0.026;2023-04-01T05:38:32;99585.08;;;20.79;40.56
69239;BME280;56349;51.816;-0.026;2023-04-01T05:40:59;99585.40;;;20.85;40.57
69239;BME280;56349;51.816;-0.026;2023-04-01T05:43:23;99588.46;;;20.92;40.54
69239;BME280;56349;51.816;-0.026;2023-04-01T05:45:49;99593.77;;;20.98;40.57
69239;BME280;56349;51.816;-0.026;2023-04-01T05:48:15;99600.62;;;21.03;40.58
69239;BME280;56349;51.816;-0.026;2023-04-01T05:50:41;99602.00;;;20.86;40.52
69239;BME280;56349;51.816;-0.026;2023-04-01T05:53:05;99604.95;;;20.90;40.50
69239;BME280;56349;51.816;-0.026;2023-04-01T05:55:31;99607.37;;;20.96;40.46
69239;BME280;56349;51.816;-0.026;2023-04-01T05:57:57;99607.27;;;21.27;40.43
69239;BME280;56349;51.816;-0.026;2023-04-01T06:00:23;99611.47;;;21.32;40.41
69239;BME280;56349;51.816;-0.026;2023-04-01T06:02:49;99619.26;;;21.14;40.36
69239;BME280;56349;51.816;-0.026;2023-04-01T06:05:18;99621.00;;;21.19;40.31
69239;BME280;56349;51.816;-0.026;2023-04-01T06:07:40;99623.82;;;21.23;40.29
69239;BME280;56349;51.816;-0.026;2023-04-01T06:10:12;99628.72;;;21.53;40.26
69239;BME280;56349;51.816;-0.026;2023-04-01T06:12:44;99627.49;;;21.08;40.23
69239;BME280;56349;51.816;-0.026;2023-04-01T06:15:06;99628.43;;;21.12;40.19
69239;BME280;56349;51.816;-0.026;2023-04-01T06:17:28;99632.78;;;21.37;40.17
69239;BME280;56349;51.816;-0.026;2023-04-01T06:19:53;99635.56;;;21.41;40.09
69239;BME280;56349;51.816;-0.026;2023-04-01T06:24:50;99638.98;;;21.44;39.91
69239;BME280;56349;51.816;-0.026;2023-04-01T06:27:10;99641.82;;;21.45;39.85
69239;BME280;56349;51.816;-0.026;2023-04-01T06:29:45;99644.22;;;21.26;39.71
69239;BME280;56349;51.816;-0.026;2023-04-01T06:32:09;99647.69;;;21.51;39.60
69239;BME280;56349;51.816;-0.026;2023-04-01T06:36:57;99654.79;;;21.84;39.34
69239;BME280;56349;51.816;-0.026;2023-04-01T06:39:20;99658.02;;;21.35;39.23
69239;BME280;56349;51.816;-0.026;2023-04-01T06:44:12;99662.40;;;21.58;39.03
69239;BME280;56349;51.816;-0.026;2023-04-01T06:46:36;99667.84;;;21.32;38.98
69239;BME280;56349;51.816;-0.026;2023-04-01T06:49:12;99666.18;;;21.26;38.94
69239;BME280;56349;51.816;-0.026;2023-04-01T06:51:26;99671.72;;;21.72;38.91
69239;BME280;56349;51.816;-0.026;2023-04-01T06:53:51;99675.34;;;21.70;38.85
69239;BME280;56349;51.816;-0.026;2023-04-01T06:56:14;99676.71;;;21.43;38.79
69239;BME280;56349;51.816;-0.026;2023-04-01T06:58:40;99677.37;;;21.44;38.70
69239;BME280;56349;51.816;-0.026;2023-04-01T07:01:04;99678.16;;;21.43;38.64
69239;BME280;56349;51.816;-0.026;2023-04-01T07:03:32;99682.10;;;21.43;38.56
69239;BME280;56349;51.816;-0.026;2023-04-01T07:05:54;99686.27;;;21.41;38.53
69239;BME280;56349;51.816;-0.026;2023-04-01T07:08:22;99687.15;;;21.38;38.49
69239;BME280;56349;51.816;-0.026;2023-04-01T07:10:47;99691.47;;;21.33;38.51
69239;BME280;56349;51.816;-0.026;2023-04-01T07:13:15;99690.80;;;21.29;38.49
69239;BME280;56349;51.816;-0.026;2023-04-01T07:15:38;99698.82;;;21.27;38.46
69239;BME280;56349;51.816;-0.026;2023-04-01T07:18:05;99701.15;;;21.23;38.46
69239;BME280;56349;51.816;-0.026;2023-04-01T07:20:30;99701.37;;;21.01;38.42
69239;BME280;56349;51.816;-0.026;2023-04-01T07:22:56;99705.41;;;21.50;38.37
69239;BME280;56349;51.816;-0.026;2023-04-01T07:25:21;99709.68;;;21.22;38.37
69239;BME280;56349;51.816;-0.026;2023-04-01T07:27:45;99712.08;;;21.46;38.38
69239;BME280;56349;51.816;-0.026;2023-04-01T07:30:15;99712.26;;;20.93;38.38
69239;BME280;56349;51.816;-0.026;2023-04-01T07:32:40;99711.50;;;20.93;38.43
69239;BME280;56349;51.816;-0.026;2023-04-01T07:35:09;99719.13;;;21.17;38.52
69239;BME280;56349;51.816;-0.026;2023-04-01T07:37:30;99722.69;;;21.16;38.67
69239;BME280;56349;51.816;-0.026;2023-04-01T07:39:58;99731.54;;;21.14;38.81
69239;BME280;56349;51.816;-0.026;2023-04-01T07:42:25;99732.99;;;21.39;38.88
69239;BME280;56349;51.816;-0.026;2023-04-01T07:44:47;99733.67;;;21.13;38.75
69239;BME280;56349;51.816;-0.026;2023-04-01T07:47:16;99741.01;;;21.10;38.82
69239;BME280;56349;51.816;-0.026;2023-04-01T07:49:42;99742.94;;;21.09;38.83
69239;BME280;56349;51.816;-0.026;2023-04-01T07:52:03;99746.43;;;21.10;38.92
69239;BME280;56349;51.816;-0.026;2023-04-01T07:54:31;99750.12;;;21.15;38.98
69239;BME280;56349;51.816;-0.026;2023-04-01T07:56:55;99756.53;;;21.25;38.95
69239;BME280;56349;51.816;-0.026;2023-04-01T07:59:20;99760.14;;;21.38;38.96
69239;BME280;56349;51.816;-0.026;2023-04-01T08:01:47;99761.72;;;21.55;38.85
69239;BME280;56349;51.816;-0.026;2023-04-01T08:04:20;99765.69;;;21.52;38.59
69239;BME280;56349;51.816;-0.026;2023-04-01T08:06:35;99765.71;;;21.74;38.34
69239;BME280;56349;51.816;-0.026;2023-04-01T08:09:02;99766.19;;;21.99;38.13
69239;BME280;56349;51.816;-0.026;2023-04-01T08:11:34;99772.28;;;22.31;37.99
69239;BME280;56349;51.816;-0.026;2023-04-01T08:13:55;99775.90;;;22.12;37.68
69239;BME280;56349;51.816;-0.026;2023-04-01T08:16:18;99778.22;;;22.40;37.36
69239;BME280;56349;51.816;-0.026;2023-04-01T08:18:45;99783.08;;;22.63;37.06
69239;BME280;56349;51.816;-0.026;2023-04-01T08:21:11;99782.04;;;22.88;36.73
69239;BME280;56349;51.816;-0.026;2023-04-01T08:23:33;99791.36;;;22.93;36.39
69239;BME280;56349;51.816;-0.026;2023-04-01T08:26:02;99788.97;;;22.90;36.06
69239;BME280;56349;51.816;-0.026;2023-04-01T08:28:27;99790.29;;;23.13;35.71
69239;BME280;56349;51.816;-0.026;2023-04-01T08:30:52;99788.43;;;22.92;35.38
69239;BME280;56349;51.816;-0.026;2023-04-01T08:33:18;99790.20;;;23.61;35.09
69239;BME280;56349;51.816;-0.026;2023-04-01T08:35:43;99794.21;;;23.85;34.82
69239;BME280;56349;51.816;-0.026;2023-04-01T08:38:11;99793.56;;;23.67;34.63
69239;BME280;56349;51.816;-0.026;2023-04-01T08:40:46;99794.67;;;24.16;34.38
69239;BME280;56349;51.816;-0.026;2023-04-01T08:43:07;99797.02;;;24.20;34.14
69239;BME280;56349;51.816;-0.026;2023-04-01T08:52:45;99810.33;;;24.96;33.21
69239;BME280;56349;51.816;-0.026;2023-04-01T08:55:20;99802.52;;;24.85;32.81
69239;BME280;56349;51.816;-0.026;2023-04-01T08:57:42;99805.67;;;25.07;32.77
69239;BME280;56349;51.816;-0.026;2023-04-01T09:00:05;99809.87;;;25.25;32.45
69239;BME280;56349;51.816;-0.026;2023-04-01T09:05:02;99817.21;;;25.33;31.81
69239;BME280;56349;51.816;-0.026;2023-04-01T09:07:22;99823.21;;;25.41;31.64
69239;BME280;56349;51.816;-0.026;2023-04-01T09:14:38;99832.79;;;25.34;31.18
69239;BME280;56349;51.816;-0.026;2023-04-01T09:17:01;99836.58;;;25.39;31.06
69239;BME280;56349;51.816;-0.026;2023-04-01T09:19:24;99840.48;;;25.62;30.94
69239;BME280;56349;51.816;-0.026;2023-04-01T09:21:56;99846.03;;;25.46;30.78
69239;BME280;56349;51.816;-0.026;2023-04-01T09:24:23;99846.85;;;25.50;30.64
69239;BME280;56349;51.816;-0.026;2023-04-01T09:26:45;99847.63;;;25.25;30.50
69239;BME280;56349;51.816;-0.026;2023-04-01T09:29:13;99850.72;;;26.04;30.43
69239;BME280;56349;51.816;-0.026;2023-04-01T09:34:05;99854.03;;;25.69;30.28
69239;BME280;56349;51.816;-0.026;2023-04-01T09:36:28;99860.12;;;25.73;30.22
69239;BME280;56349;51.816;-0.026;2023-04-01T09:38:54;99863.37;;;25.98;30.13
69239;BME280;56349;51.816;-0.026;2023-04-01T09:41:18;99866.45;;;26.00;30.05
69239;BME280;56349;51.816;-0.026;2023-04-01T09:43:49;99869.27;;;25.54;29.99
69239;BME280;56349;51.816;-0.026;2023-04-01T09:46:15;99866.86;;;25.56;29.99
69239;BME280;56349;51.816;-0.026;2023-04-01T09:51:00;99879.21;;;25.98;29.78
69239;BME280;56349;51.816;-0.026;2023-04-01T09:53:30;99877.06;;;26.28;29.64
69239;BME280;56349;51.816;-0.026;2023-04-01T10:13:00;99903.47;;;26.13;28.93
69239;BME280;56349;51.816;-0.026;2023-04-01T10:15:21;99911.96;;;26.14;28.86
69239;BME280;56349;51.816;-0.026;2023-04-01T10:22:37;99921.12;;;26.15;28.69
69239;BME280;56349;51.816;-0.026;2023-04-01T10:27:26;99929.70;;;26.09;28.61
69239;BME280;56349;51.816;-0.026;2023-04-01T10:29:51;99939.06;;;26.08;28.56
69239;BME280;56349;51.816;-0.026;2023-04-01T10:36:59;99950.35;;;26.10;28.45
69239;BME280;56349;51.816;-0.026;2023-04-01T10:39:33;99953.99;;;26.11;28.41
69239;BME280;56349;51.816;-0.026;2023-04-01T10:42:00;99954.00;;;26.14;28.38
69239;BME280;56349;51.816;-0.026;2023-04-01T10:56:32;99973.84;;;26.11;28.12
69239;BME280;56349;51.816;-0.026;2023-04-01T11:01:22;99982.90;;;25.87;28.35
69239;BME280;56349;51.816;-0.026;2023-04-01T11:13:32;99998.21;;;25.29;29.17
69239;BME280;56349;51.816;-0.026;2023-04-01T11:20:47;100005.37;;;25.02;30.05
69239;BME280;56349;51.816;-0.026;2023-04-01T11:25:37;100022.17;;;24.75;30.59
69239;BME280;56349;51.816;-0.026;2023-04-01T11:28:07;100020.92;;;24.31;30.78
69239;BME280;56349;51.816;-0.026;2023-04-01T11:30:28;100022.98;;;24.10;31.01
69239;BME280;56349;51.816;-0.026;2023-04-01T11:32:53;100031.30;;;23.92;31.18
69239;BME280;56349;51.816;-0.026;2023-04-01T11:35:25;100036.39;;;23.72;31.40
69239;BME280;56349;51.816;-0.026;2023-04-01T11:37:46;100038.12;;;23.74;31.59
69239;BME280;56349;51.816;-0.026;2023-04-01T11:40:12;100039.06;;;23.65;31.73
69239;BME280;56349;51.816;-0.026;2023-04-01T11:42:37;100041.23;;;24.04;31.87
69239;BME280;56349;51.816;-0.026;2023-04-01T11:45:06;100042.94;;;23.64;32.07
69239;BME280;56349;51.816;-0.026;2023-04-01T11:49:57;100048.07;;;23.44;32.60
69239;BME280;56349;51.816;-0.026;2023-04-01T11:52:25;100051.89;;;23.42;32.73
69239;BME280;56349;51.816;-0.026;2023-04-01T11:57:16;100056.84;;;23.57;32.82
69239;BME280;56349;51.816;-0.026;2023-04-01T12:02:02;100068.52;;;23.87;32.74
69239;BME280;56349;51.816;-0.026;2023-04-01T12:04:29;100069.42;;;24.14;32.59
69239;BME280;56349;51.816;-0.026;2023-04-01T12:06:52;100074.97;;;23.96;32.46
69239;BME280;56349;51.816;-0.026;2023-04-01T12:09:18;100079.74;;;24.21;32.32
69239;BME280;56349;51.816;-0.026;2023-04-01T12:11:44;100077.85;;;24.41;32.23
69239;BME280;56349;51.816;-0.026;2023-04-01T12:14:09;100081.73;;;24.64;32.24
69239;BME280;56349;51.816;-0.026;2023-04-01T12:16:38;100083.36;;;24.57;31.98
69239;BME280;56349;51.816;-0.026;2023-04-01T12:18:58;100086.28;;;24.56;31.74
69239;BME280;56349;51.816;-0.026;2023-04-01T12:21:26;100092.88;;;24.73;31.58
69239;BME280;56349;51.816;-0.026;2023-04-01T12:26:23;100086.74;;;25.03;31.28
69239;BME280;56349;51.816;-0.026;2023-04-01T12:28:45;100093.20;;;25.15;31.14
69239;BME280;56349;51.816;-0.026;2023-04-01T12:31:12;100095.96;;;25.28;31.01
69239;BME280;56349;51.816;-0.026;2023-04-01T12:36:01;100104.58;;;25.44;30.80
69239;BME280;56349;51.816;-0.026;2023-04-01T12:38:27;100108.18;;;25.53;30.68
69239;BME280;56349;51.816;-0.026;2023-04-01T12:40:51;100109.73;;;25.63;30.55
69239;BME280;56349;51.816;-0.026;2023-04-01T12:43:23;100112.59;;;25.73;30.43
69239;BME280;56349;51.816;-0.026;2023-04-01T12:45:40;100116.69;;;25.83;30.32
69239;BME280;56349;51.816;-0.026;2023-04-01T12:50:42;100116.46;;;25.94;30.11
69239;BME280;56349;51.816;-0.026;2023-04-01T12:53:10;100125.86;;;25.53;30.05
69239;BME280;56349;51.816;-0.026;2023-04-01T12:55:31;100126.95;;;25.61;29.88
69239;BME280;56349;51.816;-0.026;2023-04-01T13:02:45;100134.92;;;25.93;29.48
69239;BME280;56349;51.816;-0.026;2023-04-01T13:05:13;100135.63;;;26.02;29.36
69239;BME280;56349;51.816;-0.026;2023-04-01T13:07:36;100136.92;;;26.09;29.27
69239;BME280;56349;51.816;-0.026;2023-04-01T13:09:59;100142.38;;;26.13;29.21
69239;BME280;56349;51.816;-0.026;2023-04-01T13:12:29;100149.80;;;26.43;29.13
69239;BME280;56349;51.816;-0.026;2023-04-01T13:14:52;100147.68;;;26.19;29.09
69239;BME280;56349;51.816;-0.026;2023-04-01T13:17:13;100152.22;;;26.22;29.05
69239;BME280;56349;51.816;-0.026;2023-04-01T13:19:38;100156.65;;;26.23;29.02
69239;BME280;56349;51.816;-0.026;2023-04-01T13:22:04;100154.78;;;26.54;28.99
69239;BME280;56349;51.816;-0.026;2023-04-01T13:24:36;100161.32;;;26.12;28.91
69239;BME280;56349;51.816;-0.026;2023-04-01T13:26:58;100162.02;;;26.18;28.83
69239;BME280;56349;51.816;-0.026;2023-04-01T13:29:20;100160.03;;;26.42;28.75
69239;BME280;56349;51.816;-0.026;2023-04-01T13:31:52;100166.47;;;26.46;28.70
69239;BME280;56349;51.816;-0.026;2023-04-01T13:34:21;100174.61;;;26.48;28.67
69239;BME280;56349;51.816;-0.026;2023-04-01T13:36:40;100176.79;;;26.27;28.63
69239;BME280;56349;51.816;-0.026;2023-04-01T13:39:13;100178.07;;;26.28;28.60
69239;BME280;56349;51.816;-0.026;2023-04-01T13:41:34;100188.33;;;26.28;28.59
69239;BME280;56349;51.816;-0.026;2023-04-01T13:43:55;100187.28;;;26.49;28.59
69239;BME280;56349;51.816;-0.026;2023-04-01T13:46:29;100189.20;;;26.49;28.60
69239;BME280;56349;51.816;-0.026;2023-04-01T13:48:50;100191.75;;;26.51;28.62
69239;BME280;56349;51.816;-0.026;2023-04-01T13:51:18;100189.34;;;26.33;28.59
69239;BME280;56349;51.816;-0.026;2023-04-01T13:53:44;100191.50;;;26.36;28.62
69239;BME280;56349;51.816;-0.026;2023-04-01T13:56:08;100197.00;;;26.40;28.60
69239;BME280;56349;51.816;-0.026;2023-04-01T13:58:34;100198.03;;;26.68;28.60
69239;BME280;56349;51.816;-0.026;2023-04-01T14:00:55;100203.16;;;26.49;28.62
69239;BME280;56349;51.816;-0.026;2023-04-01T14:03:27;100207.57;;;26.56;28.63
69239;BME280;56349;51.816;-0.026;2023-04-01T14:05:49;100211.02;;;26.27;28.72
69239;BME280;56349;51.816;-0.026;2023-04-01T14:08:15;100213.78;;;26.80;28.82
69239;BME280;56349;51.816;-0.026;2023-04-01T14:10:39;100216.33;;;26.57;28.79
69239;BME280;56349;51.816;-0.026;2023-04-01T14:13:03;100216.98;;;26.25;28.76
69239;BME280;56349;51.816;-0.026;2023-04-01T14:17:58;100225.91;;;26.78;28.63
69239;BME280;56349;51.816;-0.026;2023-04-01T14:20:28;100229.41;;;26.30;28.60
69239;BME280;56349;51.816;-0.026;2023-04-01T14:22:50;100234.89;;;26.58;28.58
69239;BME280;56349;51.816;-0.026;2023-04-01T14:27:44;100242.39;;;26.55;28.56
69239;BME280;56349;51.816;-0.026;2023-04-01T14:32:33;100253.18;;;26.50;28.58
69239;BME280;56349;51.816;-0.026;2023-04-01T14:35:02;100255.35;;;26.70;28.57